createdAt,value
2019-02-07T00:00:13.846Z,-0.90
2019-02-07T00:02:46.914Z,-0.90
2019-02-07T00:05:18.450Z,-0.90
2019-02-07T00:07:49.954Z,-0.90
2019-02-07T00:10:21.705Z,-0.90
2019-02-07T00:12:53.063Z,-0.90
2019-02-07T00:15:24.713Z,-1.00
2019-02-07T00:17:56.298Z,-1.00
2019-02-07T00:20:27.829Z,-1.00
2019-02-07T00:23:00.263Z,-1.00
2019-02-07T00:25:31.589Z,-1.00
2019-02-07T00:28:03.014Z,-0.90
2019-02-07T00:30:34.342Z,-0.90
2019-02-07T00:33:05.798Z,-1.00
2019-02-07T00:35:37.302Z,-1.00
2019-02-07T00:38:08.653Z,-0.90
2019-02-07T00:40:39.958Z,-0.90
2019-02-07T00:43:11.329Z,-0.80
2019-02-07T00:45:42.677Z,-0.80
2019-02-07T00:48:14.063Z,-0.80
2019-02-07T00:50:45.423Z,-0.80
2019-02-07T00:53:16.685Z,-0.90
2019-02-07T00:55:48.057Z,-0.90
2019-02-07T00:58:19.344Z,-0.90
2019-02-07T01:00:50.791Z,-0.90
2019-02-07T01:03:22.163Z,-0.80
2019-02-07T01:05:53.498Z,-0.90
2019-02-07T01:08:24.966Z,-0.90
2019-02-07T01:10:56.466Z,-0.90
2019-02-07T01:13:27.813Z,-0.90
2019-02-07T01:15:59.143Z,-0.90
2019-02-07T01:18:30.940Z,-0.90
2019-02-07T01:21:02.318Z,-0.80
2019-02-07T01:23:33.688Z,-0.80
2019-02-07T01:26:05.122Z,-0.80
2019-02-07T01:28:36.468Z,-0.80
2019-02-07T01:31:07.846Z,-0.80
2019-02-07T01:33:39.191Z,-0.80
2019-02-07T01:36:10.562Z,-0.90
2019-02-07T01:38:42.115Z,-0.90
2019-02-07T01:41:13.513Z,-0.90
2019-02-07T01:43:44.879Z,-1.00
2019-02-07T01:46:16.254Z,-1.00
2019-02-07T01:48:47.741Z,-1.00
2019-02-07T01:51:19.101Z,-1.00
2019-02-07T01:53:50.457Z,-1.00
2019-02-07T01:56:21.925Z,-1.00
2019-02-07T01:58:53.659Z,-0.90
2019-02-07T03:01:43.283Z,-0.80
2019-02-07T03:04:24.228Z,-0.80
2019-02-07T03:07:17.481Z,-0.70
2019-02-07T03:10:07.272Z,-0.70
2019-02-07T03:13:00.192Z,-0.70
2019-02-07T03:16:02.431Z,-0.70
2019-02-07T03:18:49.152Z,-0.60
2019-02-07T03:21:37.964Z,-0.70
2019-02-07T03:24:26.692Z,-0.70
2019-02-07T03:27:15.329Z,-0.70
2019-02-07T03:30:04.440Z,-0.70
2019-02-07T03:32:44.306Z,-0.60
2019-02-07T03:35:27.577Z,-0.60
2019-02-07T03:38:26.489Z,-0.50
2019-02-07T03:41:08.364Z,-0.50
2019-02-07T03:43:58.480Z,-0.40
2019-02-07T03:46:51.624Z,-0.40
2019-02-07T03:49:45.671Z,-0.40
2019-02-07T03:52:39.872Z,-0.40
2019-02-07T03:55:42.331Z,-0.40
2019-02-07T03:58:31.081Z,-0.50
2019-02-07T04:01:24.921Z,-0.50
2019-02-07T04:04:29.943Z,-0.40
2019-02-07T04:07:10.344Z,-0.40
2019-02-07T04:10:03.224Z,-0.40
2019-02-07T04:12:56.120Z,-0.30
2019-02-07T04:15:46.245Z,-0.30
2019-02-07T04:18:34.788Z,-0.30
2019-02-07T04:21:19.980Z,-0.30
2019-02-07T04:24:12.875Z,-0.30
2019-02-07T04:27:01.926Z,-0.30
2019-02-07T04:29:50.405Z,-0.30
2019-02-07T04:32:56.845Z,-0.30
2019-02-07T04:35:52.986Z,-0.40
2019-02-07T04:39:01.004Z,-0.40
2019-02-07T04:42:00.071Z,-0.40
2019-02-07T04:44:46.562Z,-0.40
2019-02-07T04:47:42.169Z,-0.40
2019-02-07T04:50:35.173Z,-0.30
2019-02-07T04:53:19.450Z,-0.30
2019-02-07T04:56:07.787Z,-0.30
2019-02-07T04:58:48.148Z,-0.30
2019-02-07T05:01:47.224Z,-0.30
2019-02-07T05:04:24.828Z,-0.30
2019-02-07T05:07:30.124Z,-0.30
2019-02-07T05:10:34.974Z,-0.30
2019-02-07T05:13:37.144Z,-0.30
2019-02-07T05:16:23.060Z,-0.30
2019-02-07T05:19:09.231Z,-0.30
2019-02-07T05:21:53.565Z,-0.30
2019-02-07T05:24:49.720Z,-0.20
2019-02-07T05:27:49.033Z,-0.20
2019-02-07T05:30:37.982Z,-0.10
2019-02-07T05:33:26.874Z,-0.10
2019-02-07T05:36:10.719Z,-0.10
2019-02-07T05:38:52.482Z,-0.10
2019-02-07T05:41:34.788Z,-0.10
2019-02-07T05:44:12.853Z,-0.10
2019-02-07T05:47:15.144Z,-0.10
2019-02-07T05:50:03.601Z,-0.10
2019-02-07T05:52:52.693Z,-0.10
2019-02-07T05:55:41.266Z,-0.10
2019-02-07T05:58:20.644Z,-0.10
2019-02-07T06:01:16.538Z,-0.10
2019-02-07T06:04:12.593Z,-0.10
2019-02-07T06:07:01.430Z,-0.10
2019-02-07T06:09:54.744Z,-0.10
2019-02-07T06:12:43.782Z,-0.10
2019-02-07T06:15:32.770Z,-0.10
2019-02-07T06:18:21.633Z,-0.10
2019-02-07T06:21:01.666Z,0.00
2019-02-07T06:23:52.778Z,0.00
2019-02-07T06:26:51.833Z,0.00
2019-02-07T06:29:44.754Z,0.00
2019-02-07T06:32:40.902Z,0.00
2019-02-07T06:35:49.261Z,0.00
2019-02-07T06:38:54.060Z,0.00
2019-02-07T06:41:37.112Z,0.00
2019-02-07T06:44:35.891Z,0.00
2019-02-07T06:47:24.565Z,0.00
2019-02-07T06:50:10.351Z,0.00
2019-02-07T06:52:59.825Z,0.10
2019-02-07T06:55:48.421Z,0.00
2019-02-07T06:58:33.117Z,0.00
2019-02-07T07:01:24.396Z,0.00
2019-02-07T07:04:12.724Z,0.10
2019-02-07T07:06:54.034Z,0.10
2019-02-07T07:09:53.305Z,0.10
2019-02-07T07:13:01.381Z,0.10
2019-02-07T07:15:54.908Z,0.10
2019-02-07T07:18:49.546Z,0.10
2019-02-07T07:21:38.288Z,0.10
2019-02-07T07:24:23.964Z,0.10
2019-02-07T07:27:14.481Z,0.10
2019-02-07T07:30:10.616Z,0.10
2019-02-07T07:32:58.093Z,0.10
2019-02-07T07:35:48.060Z,0.10
2019-02-07T07:38:28.511Z,0.10
2019-02-07T07:41:24.739Z,0.10
2019-02-07T07:44:14.848Z,0.10
2019-02-07T07:46:59.142Z,0.20
2019-02-07T07:50:04.186Z,0.30
2019-02-07T07:53:02.937Z,0.30
2019-02-07T07:55:55.138Z,0.30
2019-02-07T07:58:44.470Z,0.30
2019-02-07T08:01:33.060Z,0.40
2019-02-07T08:04:13.813Z,0.40
2019-02-07T08:07:03.937Z,0.50
2019-02-07T08:10:00.291Z,0.60
2019-02-07T08:12:56.443Z,0.60
2019-02-07T08:16:04.992Z,0.70
2019-02-07T08:18:51.749Z,0.70
2019-02-07T08:21:41.869Z,0.70
2019-02-07T08:24:31.994Z,0.70
2019-02-07T08:27:20.649Z,0.80
2019-02-07T08:30:36.042Z,0.90
2019-02-07T08:33:32.329Z,0.90
2019-02-07T08:36:34.462Z,0.90
2019-02-07T08:39:28.216Z,0.90
2019-02-07T08:42:18.378Z,0.90
2019-02-07T08:45:14.590Z,1.00
2019-02-07T08:48:04.000Z,1.00
2019-02-07T08:51:10.428Z,1.10
2019-02-07T08:53:54.417Z,1.10
2019-02-07T08:56:53.515Z,1.10
2019-02-07T08:59:55.537Z,1.10
2019-02-07T09:02:51.841Z,1.20
2019-02-07T09:05:46.272Z,1.20
2019-02-07T09:08:43.146Z,1.20
2019-02-07T09:11:33.269Z,1.20
2019-02-07T09:14:22.224Z,1.30
2019-02-07T09:17:18.217Z,1.30
2019-02-07T09:20:26.372Z,1.30
2019-02-07T09:23:15.192Z,1.30
2019-02-07T09:26:04.411Z,1.30
2019-02-07T09:29:13.521Z,1.30
2019-02-07T09:32:04.688Z,1.30
2019-02-07T09:34:48.886Z,1.40
2019-02-07T09:37:37.649Z,1.40
2019-02-07T09:40:28.410Z,1.40
2019-02-07T09:43:11.005Z,1.40
2019-02-07T09:46:07.654Z,1.40
2019-02-07T09:48:58.161Z,1.50
2019-02-07T09:51:51.670Z,1.50
2019-02-07T09:54:41.765Z,1.50
2019-02-07T09:57:21.967Z,1.50
2019-02-07T10:00:12.085Z,1.60
2019-02-07T10:03:20.577Z,1.60
2019-02-07T10:06:10.697Z,1.70
2019-02-07T10:09:04.208Z,1.70
2019-02-07T10:12:06.245Z,1.70
2019-02-07T10:15:02.132Z,1.70
2019-02-07T10:17:44.825Z,1.80
2019-02-07T10:20:33.437Z,1.80
2019-02-07T10:23:26.560Z,1.70
2019-02-07T10:26:35.010Z,1.80
2019-02-07T10:29:34.224Z,1.80
2019-02-07T10:32:12.870Z,1.80
2019-02-07T10:35:09.120Z,1.80
2019-02-07T10:37:59.407Z,1.80
2019-02-07T10:40:48.693Z,1.90
2019-02-07T10:43:42.221Z,1.90
2019-02-07T10:46:42.225Z,1.90
2019-02-07T10:49:44.495Z,1.90
2019-02-07T10:52:40.008Z,1.90
2019-02-07T10:55:38.265Z,1.90
2019-02-07T10:58:27.902Z,2.00
2019-02-07T11:01:31.069Z,2.00
2019-02-07T11:04:12.248Z,2.10
2019-02-07T11:06:56.706Z,2.00
2019-02-07T11:09:39.720Z,2.10
2019-02-07T11:12:28.351Z,2.10
2019-02-07T11:15:06.618Z,2.10
2019-02-07T11:17:59.753Z,2.10
2019-02-07T11:21:02.093Z,2.10
2019-02-07T11:23:54.957Z,2.10
2019-02-07T11:26:43.372Z,2.10
2019-02-07T11:29:34.981Z,2.10
2019-02-07T11:32:40.464Z,2.20
2019-02-07T11:35:28.978Z,2.20
2019-02-07T11:38:14.000Z,2.20
2019-02-07T11:41:04.238Z,2.20
2019-02-07T11:43:52.977Z,2.20
2019-02-07T11:46:41.444Z,2.10
2019-02-07T11:49:36.815Z,2.10
2019-02-07T11:52:27.048Z,2.10
2019-02-07T11:55:20.058Z,2.10
2019-02-07T11:58:19.013Z,2.10
2019-02-07T12:01:07.621Z,2.10
2019-02-07T12:03:56.983Z,2.10
2019-02-07T12:06:53.138Z,2.10
2019-02-07T12:09:58.268Z,2.10
2019-02-07T12:12:43.160Z,2.20
2019-02-07T12:15:28.690Z,2.10
2019-02-07T12:18:24.621Z,2.10
2019-02-07T12:21:03.889Z,2.10
2019-02-07T12:23:44.610Z,2.10
2019-02-07T12:26:37.933Z,2.20
2019-02-07T12:29:28.154Z,2.10
2019-02-07T12:32:16.705Z,2.20
2019-02-07T12:35:16.031Z,2.10
2019-02-07T12:38:12.221Z,2.20
2019-02-07T12:41:11.361Z,2.20
2019-02-07T12:44:03.766Z,2.20
2019-02-07T12:47:09.826Z,2.10
2019-02-07T12:49:58.447Z,2.10
2019-02-07T12:52:57.582Z,2.10
2019-02-07T12:55:52.333Z,2.10
2019-02-07T12:58:35.529Z,2.10
2019-02-07T13:01:19.097Z,2.10
2019-02-07T13:04:09.312Z,2.10
2019-02-07T13:06:58.103Z,2.10
2019-02-07T13:09:47.291Z,2.10
2019-02-07T13:12:37.202Z,2.10
2019-02-07T13:15:34.583Z,2.20
2019-02-07T13:18:30.978Z,2.10
2019-02-07T13:21:20.026Z,2.10
2019-02-07T13:24:11.188Z,2.10
2019-02-07T13:26:59.872Z,2.10
2019-02-07T13:29:53.152Z,2.10
2019-02-07T13:32:55.105Z,2.10
2019-02-07T13:35:48.300Z,2.10
2019-02-07T13:38:33.292Z,2.10
2019-02-07T13:41:41.799Z,2.10
2019-02-07T13:44:30.673Z,2.10
2019-02-07T13:47:19.348Z,2.00
2019-02-07T13:50:08.032Z,2.10
2019-02-07T13:52:57.975Z,2.10
2019-02-07T13:55:54.223Z,2.10
2019-02-07T13:59:02.257Z,2.10
2019-02-07T14:02:03.021Z,2.10
2019-02-07T14:04:52.773Z,2.10
2019-02-07T14:07:39.748Z,2.10
2019-02-07T14:10:22.436Z,2.20
2019-02-07T14:13:27.432Z,2.10
2019-02-07T14:16:16.401Z,2.10
2019-02-07T14:19:06.577Z,2.10
2019-02-07T14:21:56.659Z,2.10
2019-02-07T14:25:02.243Z,2.10
2019-02-07T14:28:05.548Z,2.10
2019-02-07T14:31:06.299Z,2.10
2019-02-07T14:34:11.285Z,2.10
2019-02-07T14:36:52.869Z,2.20
2019-02-07T14:39:40.109Z,2.20
2019-02-07T14:42:33.290Z,2.20
2019-02-07T14:45:22.809Z,2.20
2019-02-07T14:47:54.144Z,2.30
2019-02-07T14:50:25.410Z,2.30
2019-02-07T14:52:57.734Z,2.30
2019-02-07T14:55:29.170Z,2.30
2019-02-07T14:58:01.746Z,2.40
2019-02-07T15:00:33.177Z,2.40
2019-02-07T15:03:04.589Z,2.40
2019-02-07T15:05:35.900Z,2.40
2019-02-07T15:08:07.473Z,2.40
2019-02-07T15:10:38.750Z,2.40
2019-02-07T15:13:11.931Z,2.40
2019-02-07T15:15:43.472Z,2.40
2019-02-07T15:18:14.728Z,2.30
2019-02-07T15:20:46.180Z,2.30
2019-02-07T15:23:17.429Z,2.30
2019-02-07T15:25:49.064Z,2.30
2019-02-07T15:28:20.329Z,2.30
2019-02-07T15:30:52.316Z,2.30
2019-02-07T15:33:23.861Z,2.30
2019-02-07T15:35:55.104Z,2.30
2019-02-07T15:38:26.513Z,2.30
2019-02-07T15:40:57.851Z,2.30
2019-02-07T15:43:31.202Z,2.40
2019-02-07T15:46:02.933Z,2.40
2019-02-07T15:48:34.188Z,2.40
2019-02-07T15:51:05.748Z,2.40
2019-02-07T15:53:37.033Z,2.40
2019-02-07T15:56:08.296Z,2.40
2019-02-07T15:58:47.733Z,2.40
2019-02-07T16:01:32.057Z,2.30
2019-02-07T16:04:24.936Z,2.30
2019-02-07T16:06:57.203Z,2.40
2019-02-07T16:09:29.298Z,2.40
2019-02-07T16:12:00.575Z,2.40
2019-02-07T16:14:32.747Z,2.30
2019-02-07T16:17:04.435Z,2.40
2019-02-07T16:19:36.698Z,2.40
2019-02-07T16:22:08.237Z,2.40
2019-02-07T16:24:39.517Z,2.40
2019-02-07T16:27:10.769Z,2.30
2019-02-07T16:29:42.269Z,2.30
2019-02-07T16:32:14.000Z,2.30
2019-02-07T16:34:45.256Z,2.30
2019-02-07T16:37:16.940Z,2.30
2019-02-07T16:39:48.953Z,2.30
2019-02-07T16:42:20.444Z,2.30
2019-02-07T16:44:52.257Z,2.30
2019-02-07T16:47:23.516Z,2.30
2019-02-07T16:49:54.897Z,2.30
2019-02-07T16:52:27.157Z,2.20
2019-02-07T16:54:58.789Z,2.30
2019-02-07T16:57:30.040Z,2.30
2019-02-07T17:00:01.330Z,2.30
2019-02-07T17:02:33.636Z,2.30
2019-02-07T17:05:05.957Z,2.30
2019-02-07T17:07:37.444Z,2.30
2019-02-07T17:10:11.979Z,2.30
2019-02-07T17:12:43.268Z,2.30
2019-02-07T17:15:16.813Z,2.30
2019-02-07T17:17:48.190Z,2.40
2019-02-07T17:20:28.416Z,2.40
2019-02-07T17:23:00.270Z,2.40
2019-02-07T17:25:32.161Z,2.40
2019-02-07T17:28:03.436Z,2.40
2019-02-07T17:30:35.147Z,2.40
2019-02-07T17:33:06.545Z,2.30
2019-02-07T17:35:38.003Z,2.30
2019-02-07T17:38:09.257Z,2.30
2019-02-07T17:40:40.573Z,2.20
2019-02-07T17:43:12.564Z,2.20
2019-02-07T17:45:44.005Z,2.20
2019-02-07T17:48:15.295Z,2.10
2019-02-07T17:50:46.528Z,2.10
2019-02-07T17:53:17.802Z,2.00
2019-02-07T17:55:50.061Z,1.90
2019-02-07T17:58:22.332Z,1.80
2019-02-07T18:00:59.826Z,1.80
2019-02-07T18:03:31.531Z,1.80
2019-02-07T18:06:02.780Z,1.70
2019-02-07T18:08:34.243Z,1.70
2019-02-07T18:11:07.329Z,1.60
2019-02-07T18:13:38.752Z,1.60
2019-02-07T18:16:10.104Z,1.60
2019-02-07T18:18:42.193Z,1.60
2019-02-07T18:21:13.861Z,1.50
2019-02-07T18:23:45.107Z,1.50
2019-02-07T18:26:16.380Z,1.40
2019-02-07T18:28:48.016Z,1.40
2019-02-07T18:31:19.601Z,1.40
2019-02-07T18:33:51.147Z,1.40
2019-02-07T18:36:22.422Z,1.30
2019-02-07T18:38:54.047Z,1.30
2019-02-07T18:41:25.310Z,1.20
2019-02-07T18:43:56.664Z,1.20
2019-02-07T18:46:28.246Z,1.20
2019-02-07T18:49:01.661Z,1.20
2019-02-07T18:51:32.918Z,1.10
2019-02-07T18:54:04.301Z,1.10
2019-02-07T18:56:35.572Z,1.00
2019-02-07T18:59:06.843Z,1.00
2019-02-07T19:01:38.140Z,0.90
2019-02-07T19:04:09.458Z,0.90
2019-02-07T19:06:40.713Z,0.90
2019-02-07T19:09:11.989Z,0.80
2019-02-07T19:11:43.280Z,0.80
2019-02-07T19:14:14.545Z,0.80
2019-02-07T19:16:45.830Z,0.70
2019-02-07T19:19:17.193Z,0.70
2019-02-07T19:21:56.880Z,0.60
2019-02-07T19:24:22.305Z,0.60
2019-02-07T19:26:53.982Z,0.60
2019-02-07T19:29:25.270Z,0.60
2019-02-07T19:31:56.568Z,0.60
2019-02-07T19:34:28.800Z,0.60
2019-02-07T19:37:00.096Z,0.60
2019-02-07T19:39:31.746Z,0.60
2019-02-07T19:42:03.041Z,0.60
2019-02-07T19:44:34.661Z,0.60
2019-02-07T19:47:06.152Z,0.60
2019-02-07T19:49:38.077Z,0.60
2019-02-07T19:52:09.713Z,0.60
2019-02-07T19:54:41.028Z,0.60
2019-02-07T19:57:12.682Z,0.70
2019-02-07T19:59:45.068Z,0.70
2019-02-07T20:02:16.535Z,0.70
2019-02-07T20:04:47.814Z,0.70
2019-02-07T20:07:20.433Z,0.80
2019-02-07T20:09:51.713Z,0.80
2019-02-07T20:12:23.012Z,0.90
2019-02-07T20:14:54.704Z,0.90
2019-02-07T20:17:26.020Z,0.90
2019-02-07T20:19:57.497Z,1.00
2019-02-07T20:22:28.777Z,1.00
2019-02-07T20:25:00.311Z,1.00
2019-02-07T20:27:32.656Z,1.00
2019-02-07T20:30:04.205Z,1.00
2019-02-07T20:32:35.666Z,1.10
2019-02-07T20:35:07.293Z,1.10
2019-02-07T20:37:38.552Z,1.20
2019-02-07T20:40:11.972Z,1.20
2019-02-07T20:42:43.477Z,1.20
2019-02-07T20:45:15.534Z,1.40
2019-02-07T20:47:48.354Z,1.40
2019-02-07T20:50:22.985Z,1.50
2019-02-07T20:52:54.549Z,1.50
2019-02-07T20:55:26.241Z,1.50
2019-02-07T20:57:57.795Z,1.50
2019-02-07T21:00:34.137Z,1.50
2019-02-07T21:03:06.920Z,1.60
2019-02-07T21:05:38.542Z,1.60
2019-02-07T21:08:09.897Z,1.60
2019-02-07T21:10:41.311Z,1.60
2019-02-07T21:13:12.895Z,1.70
2019-02-07T21:15:44.184Z,1.70
2019-02-07T21:18:15.536Z,1.70
2019-02-07T21:20:47.114Z,1.80
2019-02-07T21:23:18.405Z,1.80
2019-02-07T21:25:51.466Z,1.80
2019-02-07T21:28:22.936Z,1.80
2019-02-07T21:30:54.816Z,1.80
2019-02-07T21:33:26.190Z,1.80
2019-02-07T21:35:57.612Z,1.90
2019-02-07T21:38:28.936Z,1.90
2019-02-07T21:41:00.361Z,1.90
2019-02-07T21:43:31.769Z,2.00
2019-02-07T21:46:03.224Z,2.00
2019-02-07T21:48:34.486Z,2.00
2019-02-07T21:51:05.942Z,2.00
2019-02-07T21:53:37.524Z,2.00
2019-02-07T21:56:09.798Z,2.10
2019-02-07T21:58:41.055Z,2.20
2019-02-07T22:01:12.664Z,2.40
2019-02-07T22:03:44.977Z,2.40
2019-02-07T22:06:17.001Z,2.40
2019-02-07T22:08:48.950Z,2.40
2019-02-07T22:11:20.238Z,2.40
2019-02-07T22:13:51.512Z,2.40
2019-02-07T22:16:22.807Z,2.50
2019-02-07T22:18:54.076Z,2.50
2019-02-07T22:21:25.352Z,2.50
2019-02-07T22:23:56.661Z,2.60
2019-02-07T22:26:28.272Z,2.60
2019-02-07T22:28:59.640Z,2.70
2019-02-07T22:31:30.921Z,2.70
2019-02-07T22:34:02.263Z,2.80
2019-02-07T22:36:33.536Z,2.80
2019-02-07T22:39:07.393Z,3.00
2019-02-07T22:41:38.720Z,3.00
2019-02-07T22:44:10.005Z,3.20
2019-02-07T22:46:42.409Z,3.30
2019-02-07T22:49:13.730Z,3.30
2019-02-07T22:51:44.998Z,3.30
2019-02-07T22:54:16.280Z,3.30
2019-02-07T22:56:47.500Z,3.50
2019-02-07T22:59:19.186Z,3.50
2019-02-07T23:01:53.865Z,3.60
2019-02-07T23:04:26.129Z,3.60
2019-02-07T23:06:57.393Z,3.70
2019-02-07T23:09:28.774Z,3.70
2019-02-07T23:12:00.033Z,3.70
2019-02-07T23:14:31.297Z,3.70
2019-02-07T23:17:02.613Z,3.80
2019-02-07T23:19:35.474Z,3.90
2019-02-07T23:22:07.162Z,3.80
2019-02-07T23:24:38.480Z,3.80
2019-02-07T23:27:09.712Z,3.90
2019-02-07T23:29:41.108Z,3.90
2019-02-07T23:32:12.641Z,3.80
2019-02-07T23:34:43.908Z,3.80
2019-02-07T23:37:15.514Z,3.80
2019-02-07T23:39:46.809Z,3.80
2019-02-07T23:42:18.164Z,3.80
2019-02-07T23:44:49.617Z,3.80
2019-02-07T23:47:20.973Z,3.80
2019-02-07T23:49:53.041Z,3.90
2019-02-07T23:52:24.309Z,3.90
2019-02-07T23:54:55.633Z,3.90
2019-02-07T23:57:26.968Z,3.90
2019-02-07T23:59:58.228Z,3.90
